Webcam

2019/07/16 17:20 EBBR 161720Z 35004KT 290V040 9999 FEW042 20/11 Q1018 NOSIG

Webcam

--- Refresh now ---